createdAt,value
2018-03-23T00:01:54.196Z,4.70
2018-03-23T00:04:23.192Z,5.30
2018-03-23T00:06:52.188Z,5.53
2018-03-23T00:09:21.176Z,4.90
2018-03-23T00:11:50.160Z,6.10
2018-03-23T00:14:19.161Z,6.67
2018-03-23T00:16:47.734Z,5.87
2018-03-23T00:19:16.035Z,6.90
2018-03-23T00:21:44.248Z,5.97
2018-03-23T00:24:12.476Z,6.97
2018-03-23T00:26:40.689Z,7.00
2018-03-23T00:29:08.916Z,9.70
2018-03-23T00:31:37.131Z,9.03
2018-03-23T00:34:05.368Z,8.37
2018-03-23T00:36:33.588Z,7.97
2018-03-23T00:39:01.819Z,5.17
2018-03-23T00:41:30.036Z,6.17
2018-03-23T00:43:58.631Z,5.07
2018-03-23T00:46:26.832Z,5.20
2018-03-23T00:48:55.823Z,5.30
2018-03-23T00:51:24.053Z,6.17
2018-03-23T00:53:52.272Z,6.83
2018-03-23T00:56:20.479Z,6.70
2018-03-23T00:58:48.708Z,10.10
2018-03-23T01:01:17.712Z,7.57
2018-03-23T01:03:45.932Z,7.17
2018-03-23T01:06:14.168Z,7.73
2018-03-23T01:08:42.382Z,8.77
2018-03-23T01:11:10.620Z,9.20
2018-03-23T01:13:38.839Z,9.47
2018-03-23T01:16:07.084Z,8.10
2018-03-23T01:18:35.295Z,7.63
2018-03-23T01:21:03.531Z,10.33
2018-03-23T01:23:31.746Z,7.93
2018-03-23T01:25:59.984Z,7.90
2018-03-23T01:28:28.200Z,7.77
2018-03-23T01:30:57.200Z,7.83
2018-03-23T01:33:26.192Z,8.43
2018-03-23T01:35:55.183Z,6.43
2018-03-23T01:38:24.176Z,9.07
2018-03-23T01:40:53.172Z,7.60
2018-03-23T01:43:21.388Z,7.73
2018-03-23T01:45:49.615Z,7.97
2018-03-23T01:48:18.595Z,9.67
2018-03-23T01:50:47.604Z,12.03
2018-03-23T01:53:27.573Z,11.67
2018-03-23T01:55:55.811Z,13.47
2018-03-23T01:58:24.800Z,14.03
2018-03-23T02:00:53.801Z,17.03
2018-03-23T02:03:22.800Z,11.07
2018-03-23T02:05:51.036Z,11.83
2018-03-23T02:08:19.468Z,12.90
2018-03-23T02:10:47.704Z,8.70
2018-03-23T02:13:15.921Z,10.07
2018-03-23T02:15:44.157Z,11.37
2018-03-23T02:18:13.148Z,14.37
2018-03-23T02:20:42.147Z,13.80
2018-03-23T02:23:11.161Z,13.50
2018-03-23T02:25:39.372Z,12.07
2018-03-23T02:28:07.604Z,11.30
2018-03-23T02:30:35.828Z,12.80
2018-03-23T02:33:04.069Z,12.43
2018-03-23T02:35:32.314Z,12.07
2018-03-23T02:38:00.549Z,14.77
2018-03-23T02:40:28.768Z,11.03
2018-03-23T02:42:57.016Z,16.57
2018-03-23T02:45:26.012Z,11.00
2018-03-23T02:47:55.012Z,11.30
2018-03-23T02:50:24.002Z,13.27
2018-03-23T02:52:53.007Z,13.97
2018-03-23T02:55:21.550Z,15.23
2018-03-23T02:57:49.768Z,12.17
2018-03-23T03:00:17.989Z,16.30
2018-03-23T03:02:46.225Z,13.83
2018-03-23T03:05:14.449Z,15.63
2018-03-23T03:07:42.675Z,15.53
2018-03-23T03:10:10.900Z,21.03
2018-03-23T03:12:39.904Z,16.83
2018-03-23T03:15:09.290Z,16.77
2018-03-23T03:17:37.506Z,20.17
2018-03-23T03:20:05.731Z,17.93
2018-03-23T03:22:33.973Z,19.83
2018-03-23T03:25:02.206Z,19.90
2018-03-23T03:27:30.435Z,20.20
2018-03-23T03:29:58.746Z,18.93
2018-03-23T03:32:26.948Z,18.43
2018-03-23T03:34:55.192Z,18.70
2018-03-23T03:37:24.188Z,21.37
2018-03-23T03:39:52.436Z,21.67
2018-03-23T03:42:20.665Z,19.83
2018-03-23T03:44:48.914Z,20.43
2018-03-23T03:47:17.141Z,16.07
2018-03-23T03:49:45.381Z,17.97
2018-03-23T03:52:13.612Z,19.97
2018-03-23T03:54:42.620Z,18.83
2018-03-23T03:57:11.616Z,24.90
2018-03-23T03:59:39.921Z,24.50
2018-03-23T04:02:08.861Z,26.53
2018-03-23T04:04:37.871Z,25.43
2018-03-23T04:07:06.096Z,24.13
2018-03-23T04:09:35.116Z,29.83
2018-03-23T04:12:04.104Z,29.30
2018-03-23T04:14:32.349Z,32.83
2018-03-23T04:17:00.576Z,32.17
2018-03-23T04:19:28.829Z,29.03
2018-03-23T04:21:57.058Z,33.33
2018-03-23T04:24:25.355Z,30.43
2018-03-23T04:26:53.550Z,33.20
2018-03-23T04:29:21.788Z,28.07
2018-03-23T04:31:50.013Z,29.90
2018-03-23T04:34:19.025Z,29.57
2018-03-23T04:36:47.252Z,30.10
2018-03-23T04:39:15.483Z,23.90
2018-03-23T04:41:43.735Z,31.50
2018-03-23T04:44:11.966Z,25.23
2018-03-23T04:46:40.203Z,26.17
2018-03-23T04:49:08.424Z,26.50
2018-03-23T04:51:36.671Z,25.50
2018-03-23T04:54:04.896Z,23.73
2018-03-23T04:56:33.144Z,22.73
2018-03-23T04:59:01.369Z,23.00
2018-03-23T05:01:29.617Z,22.63
2018-03-23T05:03:57.845Z,22.00
2018-03-23T05:06:26.088Z,21.20
2018-03-23T05:08:54.324Z,24.53
2018-03-23T05:11:23.341Z,20.73
2018-03-23T05:13:51.564Z,21.23
2018-03-23T05:16:19.809Z,21.87
2018-03-23T05:18:48.032Z,19.00
2018-03-23T05:21:17.040Z,20.00
2018-03-23T05:23:45.272Z,18.30
2018-03-23T05:26:13.515Z,22.63
2018-03-23T05:28:41.748Z,22.90
2018-03-23T05:31:10.869Z,23.30
2018-03-23T05:33:39.101Z,24.13
2018-03-23T05:36:07.345Z,23.40
2018-03-23T05:38:35.578Z,21.07
2018-03-23T05:41:03.824Z,24.73
2018-03-23T05:43:32.071Z,29.87
2018-03-23T05:46:00.311Z,27.63
2018-03-23T05:48:28.542Z,27.87
2018-03-23T05:50:56.788Z,25.73
2018-03-23T05:53:25.020Z,23.87
2018-03-23T05:55:53.253Z,26.57
2018-03-23T05:58:21.497Z,26.13
2018-03-23T06:00:49.720Z,27.70
2018-03-23T06:03:18.728Z,27.83
2018-03-23T06:05:47.724Z,25.77
2018-03-23T06:08:15.968Z,24.53
2018-03-23T06:10:44.203Z,26.77
2018-03-23T06:13:12.444Z,26.73
2018-03-23T06:15:40.673Z,42.00
2018-03-23T06:18:08.917Z,48.30
2018-03-23T06:20:37.352Z,46.03
2018-03-23T06:23:06.361Z,45.67
2018-03-23T06:25:34.588Z,44.43
2018-03-23T06:28:02.888Z,41.37
2018-03-23T06:30:31.064Z,45.30
2018-03-23T06:33:00.079Z,42.73
2018-03-23T06:35:28.301Z,36.97
2018-03-23T06:37:56.547Z,39.17
2018-03-23T06:40:24.772Z,36.20
2018-03-23T06:42:53.015Z,35.50
2018-03-23T06:45:21.261Z,33.47
2018-03-23T06:47:49.501Z,36.60
2018-03-23T06:50:18.499Z,36.50
2018-03-23T06:52:47.500Z,36.57
2018-03-23T06:55:15.727Z,41.60
2018-03-23T06:57:43.975Z,42.13
2018-03-23T07:00:12.198Z,41.73
2018-03-23T07:02:40.441Z,37.03
2018-03-23T07:05:08.676Z,34.60
2018-03-23T07:07:36.910Z,36.23
2018-03-23T07:10:05.151Z,35.60
2018-03-23T07:12:33.380Z,37.80
2018-03-23T07:15:02.401Z,39.30
2018-03-23T07:17:30.628Z,38.77
2018-03-23T07:19:59.116Z,33.57
2018-03-23T07:22:28.105Z,36.70
2018-03-23T07:24:57.113Z,32.20
2018-03-23T07:27:25.388Z,34.07
2018-03-23T07:29:53.588Z,35.17
2018-03-23T07:32:21.813Z,33.53
2018-03-23T07:34:50.818Z,34.50
2018-03-23T07:37:19.821Z,29.93
2018-03-23T07:39:48.064Z,34.30
2018-03-23T07:42:16.291Z,34.70
2018-03-23T07:44:44.537Z,26.03
2018-03-23T07:47:12.760Z,30.27
2018-03-23T07:49:41.004Z,25.10
2018-03-23T07:52:09.240Z,19.90
2018-03-23T07:54:38.298Z,22.47
2018-03-23T07:57:06.481Z,23.17
2018-03-23T07:59:34.729Z,25.20
2018-03-23T08:02:02.956Z,21.83
2018-03-23T08:04:31.958Z,26.93
2018-03-23T08:07:00.997Z,25.13
2018-03-23T08:09:29.208Z,24.73
2018-03-23T08:11:58.200Z,27.47
2018-03-23T08:14:27.504Z,27.33
2018-03-23T08:16:55.742Z,23.40
2018-03-23T08:19:23.971Z,26.90
2018-03-23T08:21:52.205Z,32.10
2018-03-23T08:24:20.446Z,23.27
2018-03-23T08:26:48.713Z,26.10
2018-03-23T08:29:16.948Z,24.33
2018-03-23T08:31:45.952Z,22.77
2018-03-23T08:34:14.176Z,20.80
2018-03-23T08:36:42.425Z,18.13
2018-03-23T08:39:10.661Z,16.13
2018-03-23T08:41:39.665Z,20.33
2018-03-23T08:44:07.937Z,20.10
2018-03-23T08:46:36.136Z,19.43
2018-03-23T08:49:04.378Z,18.73
2018-03-23T08:51:33.380Z,16.60
2018-03-23T08:54:01.616Z,18.37
2018-03-23T08:56:29.861Z,19.33
2018-03-23T08:58:58.098Z,18.43
2018-03-23T09:01:26.343Z,17.57
2018-03-23T09:03:54.573Z,24.00
2018-03-23T09:06:22.812Z,20.27
2018-03-23T09:08:51.804Z,24.17
2018-03-23T09:11:20.816Z,21.27
2018-03-23T09:13:49.048Z,24.77
2018-03-23T09:16:17.291Z,20.97
2018-03-23T09:18:45.518Z,24.50
2018-03-23T09:21:14.533Z,23.37
2018-03-23T09:23:42.768Z,23.43
2018-03-23T09:26:11.776Z,20.37
2018-03-23T09:28:40.776Z,24.73
2018-03-23T09:31:09.065Z,24.53
2018-03-23T09:33:37.243Z,22.90
2018-03-23T09:36:05.496Z,21.13
2018-03-23T09:38:33.724Z,20.67
2018-03-23T09:41:01.955Z,21.63
2018-03-23T09:43:30.200Z,24.17
2018-03-23T09:45:59.202Z,24.60
2018-03-23T09:48:28.208Z,26.63
2018-03-23T09:50:56.434Z,29.07
2018-03-23T09:53:24.668Z,31.63
2018-03-23T09:55:52.892Z,22.23
2018-03-23T09:58:23.105Z,19.20
2018-03-23T10:00:51.319Z,14.83
2018-03-23T10:03:19.564Z,15.70
2018-03-23T10:05:47.788Z,12.60
2018-03-23T10:08:16.029Z,11.23
2018-03-23T10:10:44.286Z,15.43
2018-03-23T10:13:13.360Z,23.80
2018-03-23T10:15:42.285Z,18.83
2018-03-23T10:18:10.531Z,16.17
2018-03-23T10:20:38.761Z,18.00
2018-03-23T10:23:07.005Z,14.87
2018-03-23T10:25:36.000Z,14.50
2018-03-23T10:28:04.228Z,17.50
2018-03-23T10:30:32.737Z,14.57
2018-03-23T10:33:00.952Z,9.37
2018-03-23T10:35:29.184Z,7.03
2018-03-23T10:37:57.395Z,9.57
2018-03-23T10:40:25.641Z,8.60
2018-03-23T10:42:54.625Z,6.77
2018-03-23T10:45:23.628Z,8.83
2018-03-23T10:47:52.620Z,11.53
2018-03-23T10:50:20.860Z,11.00
2018-03-23T10:52:49.085Z,11.80
2018-03-23T10:55:17.358Z,11.80
2018-03-23T10:57:45.536Z,9.67
2018-03-23T11:00:14.271Z,11.07
2018-03-23T11:02:48.908Z,11.07
2018-03-23T11:05:17.913Z,19.53
2018-03-23T11:07:47.728Z,14.03
2018-03-23T11:10:15.964Z,11.73
2018-03-23T11:12:44.188Z,13.93
2018-03-23T11:15:12.445Z,11.47
2018-03-23T11:17:40.664Z,11.07
2018-03-23T11:20:08.904Z,13.93
2018-03-23T11:22:37.137Z,12.80
2018-03-23T11:25:05.376Z,15.00
2018-03-23T11:27:33.614Z,17.43
2018-03-23T11:30:01.873Z,17.57
2018-03-23T11:32:30.092Z,17.27
2018-03-23T11:34:58.350Z,19.70
2018-03-23T11:37:26.569Z,23.80
2018-03-23T11:39:54.816Z,25.60
2018-03-23T11:42:23.051Z,34.53
2018-03-23T11:44:52.042Z,30.37
2018-03-23T11:47:21.052Z,29.83
2018-03-23T11:49:49.278Z,31.30
2018-03-23T11:52:18.125Z,26.57
2018-03-23T11:54:46.560Z,26.23
2018-03-23T11:57:15.574Z,24.03
2018-03-23T11:59:43.801Z,26.10
2018-03-23T12:02:12.056Z,32.77
2018-03-23T12:04:40.336Z,29.50
2018-03-23T12:07:08.580Z,25.17
2018-03-23T12:09:36.808Z,27.60
2018-03-23T12:12:05.052Z,29.37
2018-03-23T12:14:33.276Z,28.57
2018-03-23T12:17:02.294Z,29.33
2018-03-23T12:19:30.568Z,29.03
2018-03-23T12:21:58.804Z,33.33
2018-03-23T12:24:27.795Z,28.47
2018-03-23T12:26:56.801Z,33.10
2018-03-23T12:29:25.792Z,32.43
2018-03-23T12:31:54.810Z,36.30
2018-03-23T12:34:23.040Z,38.33
2018-03-23T12:36:52.060Z,33.03
2018-03-23T12:39:20.288Z,34.63
2018-03-23T12:41:48.534Z,35.43
2018-03-23T12:44:16.773Z,38.07
2018-03-23T12:46:45.784Z,36.40
2018-03-23T12:49:14.021Z,36.20
2018-03-23T12:51:42.333Z,39.80
2018-03-23T12:54:10.562Z,39.83
2018-03-23T12:56:38.804Z,38.20
2018-03-23T12:59:07.056Z,36.27
2018-03-23T13:01:35.300Z,35.60
2018-03-23T13:04:04.321Z,36.30
2018-03-23T13:06:32.532Z,38.60
2018-03-23T13:09:00.784Z,34.60
2018-03-23T13:11:29.013Z,42.37
2018-03-23T13:13:58.032Z,36.07
2018-03-23T13:16:26.304Z,40.13
2018-03-23T13:18:54.562Z,42.27
2018-03-23T13:21:23.561Z,38.10
2018-03-23T13:23:51.810Z,38.67
2018-03-23T13:26:20.808Z,43.33
2018-03-23T13:28:49.887Z,39.00
2018-03-23T13:31:18.480Z,42.23
2018-03-23T13:33:46.720Z,41.60
2018-03-23T13:36:14.948Z,41.77
2018-03-23T13:38:43.200Z,46.43
2018-03-23T13:41:12.188Z,44.40
2018-03-23T13:43:41.203Z,44.43
2018-03-23T13:46:09.856Z,45.83
2018-03-23T13:48:38.068Z,43.03
2018-03-23T13:51:06.301Z,43.27
2018-03-23T13:53:34.546Z,49.73
2018-03-23T13:56:02.784Z,43.03
2018-03-23T13:58:36.784Z,42.07
2018-03-23T14:01:05.804Z,42.17
2018-03-23T14:03:34.033Z,44.90
2018-03-23T14:06:03.044Z,43.47
2018-03-23T14:08:31.273Z,53.67
2018-03-23T14:10:59.516Z,57.83
2018-03-23T14:13:27.744Z,54.43
2018-03-23T14:15:56.761Z,57.73
2018-03-23T14:18:24.991Z,64.27
2018-03-23T14:20:53.241Z,60.10
2018-03-23T14:23:21.534Z,66.33
2018-03-23T14:25:49.804Z,65.17
2018-03-23T14:28:18.024Z,77.33
2018-03-23T14:30:47.042Z,74.20
2018-03-23T14:33:15.268Z,78.60
2018-03-23T14:35:44.326Z,79.27
2018-03-23T14:38:12.517Z,83.90
2018-03-23T14:40:40.762Z,78.40
2018-03-23T14:43:08.993Z,81.80
2018-03-23T14:45:38.000Z,76.77
2018-03-23T14:48:06.651Z,82.70
2018-03-23T14:50:34.873Z,85.50
2018-03-23T14:53:03.098Z,80.40
2018-03-23T14:55:31.336Z,79.67
2018-03-23T14:57:59.574Z,79.17
2018-03-23T15:00:28.588Z,94.23
2018-03-23T15:02:56.816Z,101.97
2018-03-23T15:05:25.888Z,102.53
2018-03-23T15:07:54.860Z,91.77
2018-03-23T15:10:23.113Z,99.50
2018-03-23T15:12:51.650Z,104.70
2018-03-23T15:15:19.982Z,108.87
2018-03-23T15:17:48.228Z,102.63
2018-03-23T15:20:16.460Z,107.23
2018-03-23T15:22:44.716Z,104.53
2018-03-23T15:25:12.953Z,106.07
2018-03-23T15:27:41.208Z,115.57
2018-03-23T15:30:10.266Z,116.13
2018-03-23T15:32:38.495Z,111.77
2018-03-23T15:35:06.727Z,120.93
2018-03-23T15:37:34.976Z,101.27
2018-03-23T15:40:03.209Z,105.10
2018-03-23T15:42:31.476Z,97.73
2018-03-23T15:45:00.468Z,94.43
2018-03-23T15:47:29.484Z,93.13
2018-03-23T15:49:57.717Z,90.10
2018-03-23T15:52:26.732Z,93.63
2018-03-23T15:54:54.960Z,90.97
2018-03-23T15:57:23.205Z,83.07
2018-03-23T15:59:51.836Z,82.27
2018-03-23T16:02:20.077Z,80.70
2018-03-23T16:04:48.351Z,74.37
2018-03-23T16:07:16.565Z,87.03
2018-03-23T16:09:45.561Z,84.47
2018-03-23T16:12:14.565Z,75.90
2018-03-23T16:14:42.798Z,76.43
2018-03-23T16:17:11.032Z,78.23
2018-03-23T16:19:39.394Z,75.33
2018-03-23T16:22:08.370Z,72.97
2018-03-23T16:24:37.377Z,74.37
2018-03-23T16:27:05.613Z,73.97
2018-03-23T16:29:33.854Z,77.87
2018-03-23T16:32:02.129Z,77.13
2018-03-23T16:34:31.093Z,75.40
2018-03-23T16:36:59.374Z,72.97
2018-03-23T16:39:28.356Z,76.23
2018-03-23T16:41:56.591Z,75.97
2018-03-23T16:44:25.084Z,79.87
2018-03-23T16:46:53.330Z,76.93
2018-03-23T16:49:21.568Z,80.47
2018-03-23T16:51:50.344Z,82.87
2018-03-23T16:54:18.527Z,78.80
2018-03-23T16:56:46.768Z,84.73
2018-03-23T16:59:15.780Z,83.43
2018-03-23T17:01:44.020Z,82.93
2018-03-23T17:04:12.252Z,81.90
2018-03-23T17:06:40.489Z,82.40
2018-03-23T17:09:10.511Z,81.97
2018-03-23T17:11:39.841Z,86.80
2018-03-23T17:14:08.161Z,84.20
2018-03-23T17:16:36.799Z,90.47
2018-03-23T17:19:06.153Z,91.23
2018-03-23T17:21:34.389Z,89.37
2018-03-23T17:24:02.632Z,85.77
2018-03-23T17:26:30.869Z,83.93
2018-03-23T17:28:59.112Z,84.40
2018-03-23T17:31:28.511Z,82.83
2018-03-23T17:33:56.807Z,82.20
2018-03-23T17:36:25.092Z,83.93
2018-03-23T17:38:54.113Z,86.40
2018-03-23T17:41:22.340Z,84.57
2018-03-23T17:43:50.946Z,83.70
2018-03-23T17:46:19.157Z,95.73
2018-03-23T17:48:47.403Z,85.77
2018-03-23T17:51:16.425Z,88.47
2018-03-23T17:53:44.655Z,82.53
2018-03-23T17:56:13.673Z,85.57
2018-03-23T17:58:41.917Z,83.10
2018-03-23T18:01:10.144Z,86.97
2018-03-23T18:03:38.368Z,84.13
2018-03-23T18:06:07.381Z,81.17
2018-03-23T18:08:35.613Z,81.70
2018-03-23T18:11:03.860Z,82.83
2018-03-23T18:13:32.108Z,85.60
2018-03-23T18:16:01.109Z,82.03
2018-03-23T18:18:29.338Z,83.30
2018-03-23T18:20:57.589Z,87.10
2018-03-23T18:23:26.582Z,86.47
2018-03-23T18:25:54.839Z,96.47
2018-03-23T18:28:23.420Z,88.63
2018-03-23T18:30:51.723Z,88.73
2018-03-23T18:33:19.961Z,91.10
2018-03-23T18:35:48.244Z,96.23
2018-03-23T18:38:16.486Z,93.50
2018-03-23T18:40:45.492Z,92.70
2018-03-23T18:43:13.725Z,87.27
2018-03-23T18:45:41.960Z,96.17
2018-03-23T18:48:12.480Z,97.00
2018-03-23T18:50:40.705Z,96.77
2018-03-23T18:53:09.721Z,94.97
2018-03-23T18:55:37.964Z,96.17
2018-03-23T18:58:06.208Z,96.97
2018-03-23T19:00:34.469Z,92.93
2018-03-23T19:03:02.713Z,93.57
2018-03-23T19:05:30.954Z,92.47
2018-03-23T19:07:59.191Z,92.30
2018-03-23T19:10:27.505Z,97.50
2018-03-23T19:12:55.739Z,98.13
2018-03-23T19:15:24.044Z,88.80
2018-03-23T19:17:53.041Z,98.33
2018-03-23T19:20:21.263Z,94.63
2018-03-23T19:22:49.644Z,96.43
2018-03-23T19:25:17.888Z,91.73
2018-03-23T19:27:47.892Z,93.03
2018-03-23T19:30:16.900Z,104.10
2018-03-23T19:32:45.912Z,102.40
2018-03-23T19:35:14.153Z,91.87
2018-03-23T19:37:43.152Z,87.33
2018-03-23T19:40:12.162Z,98.30
2018-03-23T19:42:40.380Z,95.77
2018-03-23T19:45:08.633Z,96.37
2018-03-23T19:47:36.877Z,92.83
2018-03-23T19:50:05.125Z,97.03
2018-03-23T19:52:33.347Z,94.70
2018-03-23T19:55:01.601Z,94.43
2018-03-23T19:57:29.835Z,97.63
2018-03-23T19:59:58.085Z,95.23
2018-03-23T20:02:26.320Z,94.63
2018-03-23T20:04:54.569Z,88.70
2018-03-23T20:07:22.810Z,96.53
2018-03-23T20:09:51.056Z,102.13
2018-03-23T20:12:19.508Z,103.63
2018-03-23T20:14:47.791Z,97.37
2018-03-23T20:20:22.564Z,100.30
2018-03-23T20:22:50.811Z,102.20
2018-03-23T20:25:19.841Z,95.20
2018-03-23T20:27:53.675Z,98.73
2018-03-23T20:30:21.926Z,100.10
2018-03-23T20:32:50.162Z,101.60
2018-03-23T20:35:18.422Z,108.37
2018-03-23T20:37:47.428Z,108.93
2018-03-23T20:40:15.681Z,102.63
2018-03-23T20:42:45.161Z,104.00
2018-03-23T20:45:13.373Z,103.50
2018-03-23T20:47:41.639Z,106.30
2018-03-23T20:50:10.637Z,98.60
2018-03-23T20:52:38.888Z,97.90
2018-03-23T20:55:07.120Z,99.93
2018-03-23T20:57:35.364Z,95.80
2018-03-23T21:00:03.592Z,95.53
2018-03-23T21:02:31.836Z,92.00
2018-03-23T21:05:00.065Z,92.83
2018-03-23T21:07:29.077Z,88.73
2018-03-23T21:09:57.317Z,90.63
2018-03-23T21:12:25.561Z,92.60
2018-03-23T21:14:53.802Z,111.03
2018-03-23T21:17:22.055Z,108.33
2018-03-23T21:19:51.056Z,103.10
2018-03-23T21:22:19.307Z,108.57
2018-03-23T21:24:48.316Z,111.20
2018-03-23T21:27:17.328Z,111.23
2018-03-23T21:29:45.573Z,98.77
2018-03-23T21:32:14.564Z,97.53
2018-03-23T21:34:43.581Z,96.00
2018-03-23T21:37:11.814Z,105.90
2018-03-23T21:39:40.160Z,108.40
2018-03-23T21:42:08.400Z,112.63
2018-03-23T21:44:36.660Z,106.93
2018-03-23T21:47:04.916Z,105.17
2018-03-23T21:49:33.160Z,94.10
2018-03-23T21:52:02.156Z,88.20
2018-03-23T21:54:30.441Z,88.77
2018-03-23T21:56:58.660Z,89.00
2018-03-23T21:59:26.924Z,90.43
2018-03-23T22:01:55.924Z,86.83
2018-03-23T22:04:24.152Z,86.67
2018-03-23T22:06:52.405Z,90.03
2018-03-23T22:09:20.632Z,79.53
2018-03-23T22:11:49.641Z,87.93
2018-03-23T22:14:17.877Z,89.37
2018-03-23T22:16:46.117Z,85.10
2018-03-23T22:19:14.348Z,83.03
2018-03-23T22:21:43.363Z,84.57
2018-03-23T22:24:11.599Z,88.10
2018-03-23T22:26:39.840Z,85.83
2018-03-23T22:29:08.069Z,85.17
2018-03-23T22:31:36.356Z,80.23
2018-03-23T22:34:05.012Z,81.77
2018-03-23T22:36:33.252Z,82.60
2018-03-23T22:39:01.487Z,85.37
2018-03-23T22:41:29.732Z,84.43
2018-03-23T22:43:58.780Z,87.00
2018-03-23T22:46:27.737Z,81.97
2018-03-23T22:48:56.298Z,82.00
2018-03-23T22:51:24.519Z,84.13
2018-03-23T22:53:52.765Z,82.03
2018-03-23T22:56:20.988Z,81.80
2018-03-23T22:58:49.248Z,79.17
2018-03-23T23:01:17.480Z,84.37
2018-03-23T23:03:46.496Z,86.57
2018-03-23T23:06:14.720Z,81.93
2018-03-23T23:08:42.956Z,83.90
2018-03-23T23:11:11.187Z,91.87
2018-03-23T23:13:40.201Z,89.63
2018-03-23T23:16:08.436Z,84.93
2018-03-23T23:18:36.681Z,90.77
2018-03-23T23:21:04.904Z,88.13
2018-03-23T23:23:33.165Z,84.30
2018-03-23T23:26:02.165Z,91.33
2018-03-23T23:28:31.168Z,89.80
2018-03-23T23:30:59.412Z,89.77
2018-03-23T23:33:27.654Z,94.70
2018-03-23T23:35:56.673Z,98.13
2018-03-23T23:38:24.900Z,89.80
2018-03-23T23:40:53.153Z,101.60
2018-03-23T23:43:21.385Z,92.17
2018-03-23T23:45:49.627Z,93.10
2018-03-23T23:48:17.854Z,88.27
2018-03-23T23:50:46.867Z,88.60
2018-03-23T23:53:15.098Z,94.13
2018-03-23T23:55:43.345Z,95.63
2018-03-23T23:58:11.580Z,105.87
